createdAt,value
2019-05-30T00:04:52.500Z,99.90
2019-05-30T00:10:00.681Z,99.90
2019-05-30T00:15:10.484Z,99.90
2019-05-30T00:20:19.083Z,99.90
2019-05-30T00:25:27.377Z,99.90
2019-05-30T00:30:36.357Z,99.90
2019-05-30T00:35:45.155Z,99.90
2019-05-30T00:40:52.950Z,99.90
2019-05-30T00:46:00.692Z,99.90
2019-05-30T00:51:08.624Z,99.90
2019-05-30T00:56:17.905Z,99.90
2019-05-30T01:01:25.847Z,99.90
2019-05-30T01:06:33.816Z,99.90
2019-05-30T01:11:42.404Z,99.90
2019-05-30T01:16:52.147Z,99.90
2019-05-30T01:22:01.282Z,99.90
2019-05-30T01:27:09.954Z,99.90
2019-05-30T01:32:19.012Z,99.90
2019-05-30T01:37:27.891Z,99.90
2019-05-30T01:42:36.775Z,99.90
2019-05-30T01:47:44.867Z,99.90
2019-05-30T01:52:52.846Z,99.90
2019-05-30T01:58:01.582Z,99.90
2019-05-30T02:03:11.122Z,99.90
2019-05-30T02:08:20.938Z,99.90
2019-05-30T02:13:29.560Z,99.90
2019-05-30T02:18:37.495Z,99.90
2019-05-30T02:23:45.402Z,99.90
2019-05-30T02:28:54.414Z,99.90
2019-05-30T02:34:05.233Z,99.90
2019-05-30T02:39:14.740Z,99.90
2019-05-30T02:44:23.336Z,99.90
2019-05-30T02:49:31.571Z,99.90
2019-05-30T02:54:40.177Z,99.90
2019-05-30T02:59:48.481Z,99.90
2019-05-30T03:04:56.871Z,99.90
2019-05-30T03:10:07.543Z,99.90
2019-05-30T03:15:16.425Z,99.90
2019-05-30T03:20:25.618Z,99.90
2019-05-30T03:25:33.802Z,99.90
2019-05-30T03:30:41.960Z,99.90
2019-05-30T03:35:50.030Z,99.90
2019-05-30T03:40:58.608Z,99.90
2019-05-30T03:46:10.427Z,99.90
2019-05-30T03:51:20.194Z,99.90
2019-05-30T03:56:28.367Z,99.90
2019-05-30T04:01:38.348Z,99.90
2019-05-30T04:06:49.144Z,99.90
2019-05-30T04:11:59.120Z,99.90
2019-05-30T04:17:08.402Z,99.90
2019-05-30T04:22:17.128Z,99.80
2019-05-30T04:27:24.807Z,99.90
2019-05-30T04:32:33.268Z,99.90
2019-05-30T04:37:41.413Z,99.90
2019-05-30T04:42:49.458Z,98.60
2019-05-30T04:47:57.237Z,98.50
2019-05-30T04:53:06.776Z,98.60
2019-05-30T04:58:15.384Z,98.30
2019-05-30T05:03:44.136Z,97.90
2019-05-30T05:08:33.681Z,97.40
2019-05-30T05:13:41.995Z,97.40
2019-05-30T05:18:50.740Z,97.30
2019-05-30T05:23:58.674Z,97.70
2019-05-30T05:29:07.745Z,97.90
2019-05-30T05:34:16.560Z,99.50
2019-05-30T05:39:25.773Z,99.90
2019-05-30T05:44:34.860Z,99.90
2019-05-30T05:49:42.996Z,99.50
2019-05-30T05:54:51.184Z,98.70
2019-05-30T05:59:59.754Z,98.90
2019-05-30T06:05:08.788Z,98.80
2019-05-30T06:10:17.504Z,98.10
2019-05-30T06:15:25.419Z,97.80
2019-05-30T06:20:33.738Z,97.60
2019-05-30T06:25:41.571Z,97.60
2019-05-30T06:30:49.689Z,96.20
2019-05-30T06:35:59.033Z,96.80
2019-05-30T06:41:07.485Z,96.90
2019-05-30T06:46:17.185Z,97.20
2019-05-30T06:51:26.843Z,98.50
2019-05-30T06:56:34.850Z,99.20
2019-05-30T07:07:06.149Z,99.90
2019-05-30T07:12:14.326Z,99.70
2019-05-30T07:17:23.229Z,99.80
2019-05-30T07:22:31.854Z,99.00
2019-05-30T07:27:39.852Z,98.10
2019-05-30T07:32:47.855Z,97.70
2019-05-30T07:37:55.843Z,97.40
2019-05-30T07:43:03.718Z,97.30
2019-05-30T07:48:11.588Z,96.40
2019-05-30T07:53:19.847Z,96.00
2019-05-30T07:58:28.848Z,95.90
2019-05-30T08:03:36.958Z,95.90
2019-05-30T08:08:45.021Z,95.60
2019-05-30T08:13:52.951Z,95.20
2019-05-30T08:19:01.013Z,94.30
2019-05-30T08:24:09.303Z,93.60
2019-05-30T08:29:17.493Z,94.10
2019-05-30T08:34:25.360Z,93.50
2019-05-30T08:39:33.433Z,94.10
2019-05-30T08:44:41.516Z,93.60
2019-05-30T08:49:49.571Z,93.60
2019-05-30T08:54:58.505Z,93.60
2019-05-30T09:00:08.401Z,93.70
2019-05-30T09:05:16.789Z,93.40
2019-05-30T09:10:25.254Z,92.80
2019-05-30T09:15:33.589Z,92.30
2019-05-30T09:20:41.950Z,92.70
2019-05-30T09:26:46.895Z,92.90
2019-05-30T09:31:53.412Z,93.40
2019-05-30T09:37:01.356Z,93.60
2019-05-30T09:42:09.486Z,93.50
2019-05-30T09:47:17.467Z,93.80
2019-05-30T09:52:26.921Z,93.70
2019-05-30T09:57:35.098Z,93.70
2019-05-30T10:02:44.865Z,94.00
2019-05-30T10:18:15.866Z,94.30
2019-05-30T10:23:25.299Z,94.70
2019-05-30T10:28:33.650Z,93.90
2019-05-30T10:33:41.780Z,93.30
2019-05-30T10:38:50.413Z,93.60
2019-05-30T10:43:59.307Z,94.20
2019-05-30T10:49:07.422Z,95.20
2019-05-30T10:59:33.225Z,94.70
2019-05-30T11:04:41.327Z,93.60
2019-05-30T11:09:52.722Z,93.80
2019-05-30T11:15:01.064Z,93.90
2019-05-30T11:20:29.258Z,94.20
2019-05-30T11:25:37.503Z,94.20
2019-05-30T11:30:45.771Z,94.50
2019-05-30T11:35:55.047Z,94.70
2019-05-30T11:41:03.247Z,94.80
2019-05-30T11:46:11.266Z,95.10
2019-05-30T11:51:19.548Z,95.50
2019-05-30T11:56:27.948Z,95.80
2019-05-30T12:01:36.253Z,94.90
2019-05-30T12:06:44.230Z,94.30
2019-05-30T12:11:53.083Z,93.50
2019-05-30T12:17:01.504Z,93.30
2019-05-30T12:22:10.265Z,93.50
2019-05-30T12:27:18.768Z,93.90
2019-05-30T12:32:26.971Z,93.80
2019-05-30T12:37:34.901Z,93.90
2019-05-30T12:42:42.982Z,93.90
2019-05-30T12:47:50.877Z,93.80
2019-05-30T12:53:00.419Z,93.90
2019-05-30T12:58:08.194Z,94.10
2019-05-30T13:03:16.177Z,94.20
2019-05-30T13:08:23.828Z,94.60
2019-05-30T13:13:32.256Z,95.00
2019-05-30T13:18:40.160Z,95.50
2019-05-30T13:23:48.240Z,95.90
2019-05-30T13:28:56.272Z,95.90
2019-05-30T13:34:04.959Z,95.70
2019-05-30T13:39:13.320Z,96.20
2019-05-30T13:44:21.520Z,96.80
2019-05-30T13:49:29.713Z,97.10
2019-05-30T13:54:38.108Z,97.50
2019-05-30T13:59:46.186Z,97.50
2019-05-30T14:04:55.102Z,97.60
2019-05-30T14:10:02.918Z,97.60
2019-05-30T14:15:14.357Z,97.50
2019-05-30T14:20:23.919Z,98.00
2019-05-30T14:25:32.939Z,98.20
2019-05-30T14:30:41.097Z,98.40
2019-05-30T14:35:49.303Z,98.50
2019-05-30T14:40:58.852Z,98.60
2019-05-30T14:52:00.910Z,99.30
2019-05-30T14:57:08.913Z,99.40
2019-05-30T15:02:17.538Z,99.40
2019-05-30T15:07:25.550Z,99.50
2019-05-30T15:12:34.963Z,99.90
2019-05-30T15:17:45.299Z,99.90
2019-05-30T15:22:52.001Z,99.90
2019-05-30T15:28:01.368Z,99.90
2019-05-30T15:33:10.326Z,99.90
2019-05-30T15:38:18.891Z,99.90
2019-05-30T15:43:28.996Z,99.90
2019-05-30T15:48:36.794Z,99.90
2019-05-30T15:53:44.697Z,99.90
2019-05-30T15:58:54.506Z,99.90
2019-05-30T16:04:03.477Z,99.90
2019-05-30T16:09:12.292Z,99.90
2019-05-30T16:14:21.571Z,99.90
2019-05-30T16:19:30.210Z,99.90
2019-05-30T16:24:38.059Z,99.90
2019-05-30T16:29:46.694Z,99.90
2019-05-30T16:34:56.316Z,99.90
2019-05-30T16:40:06.534Z,99.90
2019-05-30T16:45:20.314Z,99.90
2019-05-30T16:50:25.335Z,99.90
2019-05-30T16:55:33.381Z,99.90
2019-05-30T17:00:41.460Z,99.90
2019-05-30T17:05:49.648Z,99.90
2019-05-30T17:10:58.031Z,99.90
2019-05-30T17:16:07.243Z,99.90
2019-05-30T17:21:16.370Z,99.90
2019-05-30T17:26:25.352Z,99.90
2019-05-30T17:31:33.513Z,99.90
2019-05-30T17:36:41.642Z,99.90
2019-05-30T17:41:50.035Z,99.90
2019-05-30T17:46:59.601Z,99.90
2019-05-30T17:52:07.849Z,99.90
2019-05-30T17:57:16.758Z,99.90
2019-05-30T18:02:24.821Z,99.90
2019-05-30T18:07:32.910Z,99.90
2019-05-30T18:12:41.034Z,99.90
2019-05-30T18:17:48.983Z,99.90
2019-05-30T18:22:56.933Z,99.90
2019-05-30T18:28:05.498Z,99.90
2019-05-30T18:33:13.793Z,99.90
2019-05-30T18:38:22.261Z,99.90
2019-05-30T18:43:30.911Z,99.90
2019-05-30T18:48:38.934Z,99.90
2019-05-30T18:53:47.101Z,99.90
2019-05-30T18:58:55.418Z,99.90
2019-05-30T19:04:03.625Z,99.90
2019-05-30T19:09:11.952Z,99.90
2019-05-30T19:14:20.036Z,99.90
2019-05-30T19:19:29.595Z,99.90
2019-05-30T19:24:37.707Z,99.90
2019-05-30T19:29:45.795Z,99.90
2019-05-30T19:34:55.346Z,99.90
2019-05-30T19:40:03.365Z,99.90
2019-05-30T19:45:12.625Z,99.90
2019-05-30T19:50:20.929Z,99.90
2019-05-30T19:55:29.098Z,99.90
2019-05-30T20:00:54.479Z,99.90
2019-05-30T20:05:46.072Z,99.90
2019-05-30T20:10:54.264Z,99.90
2019-05-30T20:16:02.128Z,99.90
2019-05-30T20:21:10.239Z,99.90
2019-05-30T20:26:18.600Z,99.90
2019-05-30T20:31:26.962Z,99.90
2019-05-30T20:36:36.452Z,99.90
2019-05-30T20:41:44.627Z,99.90
2019-05-30T20:46:53.147Z,99.90
2019-05-30T20:52:01.056Z,99.90
2019-05-30T20:57:08.931Z,99.90
2019-05-30T21:02:16.895Z,99.90
2019-05-30T21:07:25.514Z,99.90
2019-05-30T21:12:39.281Z,99.90
2019-05-30T21:17:46.739Z,99.90
2019-05-30T21:22:55.035Z,99.90
2019-05-30T21:28:02.830Z,99.90
2019-05-30T21:33:10.672Z,99.90
2019-05-30T21:38:19.009Z,99.90
2019-05-30T21:43:26.875Z,99.90
2019-05-30T21:48:35.074Z,99.90
2019-05-30T21:53:43.517Z,99.90
2019-05-30T21:58:51.330Z,99.90
2019-05-30T22:03:59.259Z,99.90
2019-05-30T22:09:09.633Z,99.90
2019-05-30T22:14:17.305Z,99.90
2019-05-30T22:19:25.428Z,99.90
2019-05-30T22:24:33.269Z,99.90
2019-05-30T22:29:42.136Z,99.90
2019-05-30T22:34:50.840Z,99.90
2019-05-30T22:39:58.935Z,99.90
2019-05-30T22:45:08.400Z,99.90
2019-05-30T22:50:19.495Z,99.90
2019-05-30T22:55:27.573Z,99.90
2019-05-30T23:00:35.636Z,99.90
2019-05-30T23:05:45.150Z,99.90
2019-05-30T23:10:53.802Z,99.90
2019-05-30T23:16:01.552Z,99.90
2019-05-30T23:21:09.814Z,99.90
2019-05-30T23:26:19.327Z,99.90
2019-05-30T23:31:29.458Z,99.90
2019-05-30T23:36:37.312Z,99.90
2019-05-30T23:41:48.931Z,99.90
2019-05-30T23:46:59.768Z,99.90
2019-05-30T23:52:08.191Z,99.90
2019-05-30T23:57:16.802Z,99.90
